WET,Max TemperatureF,Mean TemperatureF,Min TemperatureF,Max Dew PointF,MeanDew PointF,Min DewpointF,Max Humidity, Mean Humidity, Min Humidity, Max Sea Level PressureIn, Mean Sea Level PressureIn, Min Sea Level PressureIn, Max VisibilityMiles, Mean VisibilityMiles, Min VisibilityMiles, Max Wind SpeedMPH, Mean Wind SpeedMPH, Max Gust SpeedMPH,PrecipitationIn, CloudCover, Events, WindDirDegrees
2011-10-1,82,78,73,64,64,63,73,63,51,30.04,29.99,29.95,5,5,5,29,24,43,0.00,2,,97
2011-10-2,84,78,73,66,64,61,73,64,51,30.12,30.07,30.04,6,5,5,26,20,38,0.00,2,,92
2011-10-3,86,77,68,63,61,57,78,62,42,30.21,30.17,30.12,6,5,5,23,18,,0.00,4,,78
2011-10-4,87,78,68,63,57,50,78,53,27,30.18,30.15,30.09,6,6,5,22,16,,0.00,4,,84
2011-10-5,82,76,69,61,58,54,73,57,42,30.12,30.10,30.06,6,6,6,30,21,40,0.00,1,,85
2011-10-6,89,78,66,61,52,39,78,48,17,30.15,30.12,30.09,6,6,5,21,13,,0.00,1,,77
2011-10-7,82,71,60,64,52,37,94,58,24,30.12,30.07,30.04,5,5,2,12,5,,0.00,,,223
2011-10-8,98,78,59,64,59,52,94,69,30,30.09,30.07,30.04,5,4,1,21,8,31,0.00,2,,91
2011-10-9,82,76,69,61,57,52,73,56,35,30.12,30.09,30.06,6,5,5,23,19,32,0.00,1,,92
2011-10-10,84,76,69,61,58,55,69,58,37,30.21,30.15,30.12,6,6,2,26,21,37,0.00,1,,98
2011-10-11,84,75,66,63,60,57,83,64,42,30.21,30.17,30.15,6,6,6,17,13,,0.00,1,,82
2011-10-12,87,74,62,61,55,46,82,53,31,30.15,30.09,30.04,6,4,2,17,11,,0.00,1,,80
2011-10-13,80,70,59,61,56,50,88,62,42,30.09,30.05,30.01,5,3,2,14,7,,0.00,3,,84
2011-10-14,80,68,57,63,58,52,94,74,51,30.06,30.03,30.01,6,4,0,15,6,,0.00,4,Fog,23
2011-10-15,84,75,66,61,58,52,83,56,33,30.09,30.06,30.04,6,6,5,24,17,30,0.00,1,,91
2011-10-16,82,76,69,59,54,48,64,51,32,30.12,30.07,30.06,6,6,6,25,21,31,0.00,1,,91
2011-10-17,82,76,69,59,54,48,64,52,32,30.09,30.05,30.01,6,6,5,28,23,37,0.00,2,,94
2011-10-18,80,74,68,57,55,52,68,56,37,30.09,30.05,30.01,6,6,5,23,20,33,0.00,1,,89
2011-10-19,80,72,64,59,57,55,78,64,47,30.12,30.07,30.04,6,6,4,20,15,,0.00,1,,71
2011-10-20,77,67,57,59,55,50,88,65,44,30.09,30.05,30.01,6,5,2,20,9,,0.00,,,79
2011-10-21,80,74,68,61,57,54,73,60,39,30.01,29.97,29.89,6,6,5,25,18,32,0.00,2,,97
2011-10-22,75,68,62,59,57,55,88,68,50,29.98,29.94,29.92,6,6,5,21,9,,0.00,4,,92
2011-10-23,75,70,64,63,59,55,88,73,53,30.01,29.93,29.83,6,5,3,17,9,,0.00,3,Rain,204
2011-10-24,66,64,62,63,60,57,94,87,77,29.83,29.71,29.65,5,4,1,26,15,40,0.00,6,Rain,204
2011-10-25,71,65,57,59,54,48,88,70,46,29.98,29.89,29.77,6,5,1,15,7,,0.00,4,,260
2011-10-26,75,65,55,55,52,50,88,66,47,29.98,29.91,29.80,6,5,2,18,8,30,0.00,5,,158
2011-10-27,71,66,60,61,58,54,94,76,60,30.04,29.91,29.77,5,4,2,24,16,36,0.00,5,Rain-Thunderstorm,277
2011-10-28,69,63,57,57,55,54,94,74,60,30.12,30.07,30.01,6,6,5,14,8,,0.00,5,,319
2011-10-29,69,61,53,61,57,52,94,84,68,30.15,30.12,30.09,6,4,1,14,3,,0.00,3,,207
2011-10-30,78,66,55,61,56,52,94,69,41,30.12,30.09,30.06,6,4,1,20,8,,0.00,4,,96
2011-10-31,78,70,62,63,60,57,88,71,50,30.06,30.03,29.98,6,6,1,16,11,,0.00,2,,89